createdAt,value
2022-08-28T00:03:03.168Z,51.62
2022-08-28T00:08:10.770Z,52.13
2022-08-28T00:13:19.220Z,52.00
2022-08-28T00:18:23.443Z,51.05
2022-08-28T00:23:36.949Z,50.85
2022-08-28T00:28:48.517Z,51.24
2022-08-28T00:33:52.004Z,52.07
2022-08-28T00:38:55.649Z,51.67
2022-08-28T00:44:11.135Z,52.73
2022-08-28T00:49:16.892Z,51.07
2022-08-28T00:54:21.309Z,50.22
2022-08-28T00:59:27.832Z,50.19
2022-08-28T01:04:33.606Z,51.53
2022-08-28T01:09:44.274Z,51.74
2022-08-28T01:14:53.713Z,50.84
2022-08-28T01:20:01.053Z,51.03
2022-08-28T01:25:12.717Z,51.05
2022-08-28T01:30:20.258Z,50.70
2022-08-28T01:35:27.221Z,51.11
2022-08-28T01:40:37.489Z,51.40
2022-08-28T01:45:42.724Z,51.81
2022-08-28T01:50:46.667Z,52.42
2022-08-28T01:55:52.656Z,52.75
2022-08-28T02:00:56.146Z,52.78
2022-08-28T02:05:59.634Z,52.45
2022-08-28T02:11:05.251Z,51.83
2022-08-28T02:16:11.093Z,51.93
2022-08-28T02:21:15.374Z,51.54
2022-08-28T02:26:21.224Z,51.81
2022-08-28T02:31:24.725Z,51.89
2022-08-28T02:36:28.542Z,51.55
2022-08-28T02:41:33.467Z,51.17
2022-08-28T02:46:36.966Z,50.77
2022-08-28T02:51:40.823Z,50.10
2022-08-28T02:56:46.039Z,50.29
2022-08-28T03:01:50.057Z,50.51
2022-08-28T03:06:53.516Z,49.75
2022-08-28T03:11:58.530Z,49.35
2022-08-28T03:17:02.262Z,48.61
2022-08-28T03:22:05.924Z,48.46
2022-08-28T03:27:10.836Z,47.70
2022-08-28T03:32:14.277Z,47.80
2022-08-28T03:37:17.781Z,47.46
2022-08-28T03:42:23.208Z,47.62
2022-08-28T03:47:28.409Z,46.87
2022-08-28T03:52:33.281Z,46.68
2022-08-28T03:57:38.138Z,46.30
2022-08-28T04:02:42.292Z,46.19
2022-08-28T04:07:45.747Z,46.22
2022-08-28T04:12:50.894Z,45.69
2022-08-28T04:17:54.450Z,45.44
2022-08-28T04:22:58.036Z,45.43
2022-08-28T04:28:05.861Z,45.07
2022-08-28T04:33:10.747Z,45.04
2022-08-28T04:38:14.284Z,44.55
2022-08-28T04:43:19.238Z,44.03
2022-08-28T04:48:22.721Z,43.48
2022-08-28T04:53:26.263Z,42.48
2022-08-28T04:58:34.307Z,41.57
2022-08-28T05:03:38.135Z,41.41
2022-08-28T05:08:41.666Z,41.28
2022-08-28T05:13:47.007Z,40.82
2022-08-28T05:18:50.998Z,40.40
2022-08-28T05:23:56.603Z,39.64
2022-08-28T05:29:02.707Z,39.38
2022-08-28T05:34:07.251Z,38.41
2022-08-28T05:39:12.416Z,37.02
2022-08-28T05:44:18.661Z,35.28
2022-08-28T05:49:22.368Z,33.11
2022-08-28T05:54:25.527Z,27.07
2022-08-28T05:59:31.546Z,21.92
2022-08-28T06:04:36.472Z,20.10
2022-08-28T06:09:40.330Z,20.16
2022-08-28T06:14:45.191Z,19.84
2022-08-28T06:19:49.030Z,19.38
2022-08-28T06:24:52.647Z,17.52
2022-08-28T06:29:58.838Z,15.87
2022-08-28T06:35:02.570Z,14.06
2022-08-28T06:40:07.877Z,13.13
2022-08-28T06:45:13.990Z,11.65
2022-08-28T06:50:17.693Z,11.52
2022-08-28T06:55:21.158Z,11.12
2022-08-28T07:00:26.216Z,10.12
2022-08-28T07:05:30.622Z,9.38
2022-08-28T07:10:34.212Z,10.62
2022-08-28T07:15:41.861Z,11.81
2022-08-28T07:20:46.912Z,11.82
2022-08-28T07:25:50.642Z,10.80
2022-08-28T07:31:00.681Z,9.54
2022-08-28T07:36:04.541Z,10.71
2022-08-28T07:41:15.862Z,10.43
2022-08-28T07:46:21.051Z,10.82
2022-08-28T07:51:24.628Z,10.90
2022-08-28T07:56:30.075Z,9.91
2022-08-28T08:01:39.739Z,9.81
2022-08-28T08:06:45.044Z,9.79
2022-08-28T08:11:49.511Z,11.02
2022-08-28T08:16:54.872Z,12.01
2022-08-28T08:21:59.350Z,11.78
2022-08-28T08:27:03.866Z,11.65
2022-08-28T08:32:12.335Z,11.67
2022-08-28T08:37:16.700Z,12.10
2022-08-28T08:42:25.976Z,14.14
2022-08-28T08:47:37.849Z,14.81
2022-08-28T08:52:59.779Z,14.40
2022-08-28T08:58:07.765Z,15.79
2022-08-28T09:03:17.382Z,15.70
2022-08-28T09:08:32.228Z,17.38
2022-08-28T09:13:49.779Z,18.27
2022-08-28T09:18:57.040Z,18.14
2022-08-28T09:24:10.933Z,18.07
2022-08-28T09:29:20.801Z,17.13
2022-08-28T09:34:30.121Z,17.37
2022-08-28T09:39:35.802Z,17.35
2022-08-28T09:44:56.461Z,17.63
2022-08-28T09:50:21.581Z,17.47
2022-08-28T09:55:35.299Z,17.25
2022-08-28T10:00:42.822Z,16.96
2022-08-28T10:05:58.829Z,17.68
2022-08-28T10:11:12.675Z,18.29
2022-08-28T10:16:24.822Z,17.05
2022-08-28T10:21:37.457Z,16.50
2022-08-28T10:26:50.093Z,17.37
2022-08-28T10:31:59.644Z,16.94
2022-08-28T10:37:17.473Z,16.71
2022-08-28T10:42:35.717Z,16.15
2022-08-28T10:47:44.283Z,16.47
2022-08-28T10:52:55.524Z,16.66
2022-08-28T10:58:05.654Z,17.63
2022-08-28T11:03:36.927Z,16.76
2022-08-28T11:08:42.104Z,16.56
2022-08-28T11:13:56.164Z,16.17
2022-08-28T11:19:31.902Z,17.14
2022-08-28T11:24:47.414Z,16.63
2022-08-28T11:30:31.904Z,16.33
2022-08-28T11:35:48.690Z,15.45
2022-08-28T11:40:58.235Z,15.75
2022-08-28T11:46:26.263Z,16.07
2022-08-28T11:51:56.042Z,16.07
2022-08-28T11:57:09.504Z,16.33
2022-08-28T12:02:51.156Z,17.28
2022-08-28T12:07:54.668Z,17.20
2022-08-28T12:13:02.346Z,16.53
2022-08-28T12:18:14.808Z,16.37
2022-08-28T12:23:41.493Z,16.96
2022-08-28T12:28:49.958Z,17.06
2022-08-28T12:34:00.625Z,17.62
2022-08-28T12:39:07.803Z,18.11
2022-08-28T12:44:15.719Z,18.73
2022-08-28T12:49:35.161Z,18.76
2022-08-28T12:54:39.089Z,19.37
2022-08-28T12:59:45.978Z,19.42
2022-08-28T13:04:55.659Z,20.12
2022-08-28T13:10:03.567Z,20.24
2022-08-28T13:15:11.422Z,19.94
2022-08-28T13:20:28.978Z,20.44
2022-08-28T13:25:35.003Z,20.40
2022-08-28T13:30:40.462Z,20.97
2022-08-28T13:35:44.425Z,20.70
2022-08-28T13:40:58.001Z,21.51
2022-08-28T13:46:04.808Z,21.57
2022-08-28T13:51:14.216Z,22.27
2022-08-28T13:56:24.324Z,21.64
2022-08-28T14:01:49.391Z,21.48
2022-08-28T14:06:54.107Z,21.49
2022-08-28T14:11:58.008Z,22.54
2022-08-28T14:17:03.916Z,22.36
2022-08-28T14:22:07.911Z,21.79
2022-08-28T14:27:11.818Z,21.06
2022-08-28T14:32:16.802Z,21.77
2022-08-28T14:37:21.742Z,21.86
2022-08-28T14:42:26.722Z,22.18
2022-08-28T14:47:33.003Z,22.17
2022-08-28T14:52:37.556Z,21.73
2022-08-28T14:57:42.113Z,22.05
2022-08-28T15:02:47.254Z,21.81
2022-08-28T15:07:51.255Z,21.43
2022-08-28T15:12:54.991Z,21.66
2022-08-28T15:18:00.898Z,22.17
2022-08-28T15:23:04.695Z,22.99
2022-08-28T15:28:08.836Z,24.88
2022-08-28T15:33:14.347Z,25.00
2022-08-28T15:38:18.379Z,24.78
2022-08-28T15:43:22.006Z,25.13
2022-08-28T15:48:30.532Z,26.82
2022-08-28T15:53:35.018Z,27.34
2022-08-28T15:58:39.131Z,28.21
2022-08-28T16:03:44.176Z,28.93
2022-08-28T16:08:49.379Z,28.99
2022-08-28T16:13:54.133Z,28.40
2022-08-28T16:18:59.607Z,29.34
2022-08-28T16:24:03.225Z,27.74
2022-08-28T16:29:07.704Z,27.79
2022-08-28T16:34:12.595Z,31.87
2022-08-28T16:39:16.687Z,28.89
2022-08-28T16:44:20.874Z,31.29
2022-08-28T16:49:26.763Z,29.09
2022-08-28T16:54:30.559Z,30.80
2022-08-28T16:59:34.802Z,32.23
2022-08-28T17:04:45.310Z,32.45
2022-08-28T17:09:49.474Z,30.15
2022-08-28T17:14:52.970Z,35.07
2022-08-28T17:19:57.948Z,31.49
2022-08-28T17:25:03.578Z,35.50
2022-08-28T17:30:09.239Z,35.10
2022-08-28T17:35:15.307Z,37.05
2022-08-28T17:40:19.874Z,37.60
2022-08-28T17:45:25.824Z,38.33
2022-08-28T17:50:32.700Z,34.76
2022-08-28T17:55:37.408Z,31.60
2022-08-28T18:00:41.935Z,31.68
2022-08-28T18:05:47.918Z,30.87
2022-08-28T18:10:51.795Z,30.51
2022-08-28T18:15:56.944Z,30.18
2022-08-28T18:21:02.785Z,30.03
2022-08-28T18:26:07.732Z,30.01
2022-08-28T18:31:11.640Z,29.35
2022-08-28T18:36:17.258Z,29.41
2022-08-28T18:41:34.555Z,29.38
2022-08-28T18:46:45.920Z,29.68
2022-08-28T18:51:50.838Z,29.48
2022-08-28T18:56:59.600Z,30.31
2022-08-28T19:02:08.906Z,30.20
2022-08-28T19:07:14.739Z,30.39
2022-08-28T19:12:18.373Z,30.36
2022-08-28T19:17:22.157Z,30.55
2022-08-28T19:22:29.981Z,30.51
2022-08-28T19:27:34.285Z,30.50
2022-08-28T19:32:39.853Z,30.62
2022-08-28T19:37:47.321Z,30.62
2022-08-28T19:42:51.432Z,31.07
2022-08-28T19:47:56.326Z,31.31
2022-08-28T19:53:01.498Z,31.29
2022-08-28T19:58:06.989Z,31.31
2022-08-28T20:03:11.257Z,31.55
2022-08-28T20:08:17.878Z,31.22
2022-08-28T20:13:22.090Z,31.60
2022-08-28T20:18:26.311Z,32.04
2022-08-28T20:23:31.107Z,31.78
2022-08-28T20:28:35.605Z,34.11
2022-08-28T20:33:39.759Z,33.54
2022-08-28T20:38:45.269Z,34.39
2022-08-28T20:43:49.838Z,34.76
2022-08-28T20:48:53.524Z,33.51
2022-08-28T20:53:58.315Z,33.53
2022-08-28T20:59:02.641Z,33.59
2022-08-28T21:04:07.959Z,33.60
2022-08-28T21:09:12.839Z,34.37
2022-08-28T21:14:16.922Z,34.31
2022-08-28T21:19:20.382Z,34.23
2022-08-28T21:24:26.450Z,34.15
2022-08-28T21:29:30.914Z,34.60
2022-08-28T21:34:34.375Z,34.87
2022-08-28T21:39:39.834Z,35.84
2022-08-28T21:44:46.108Z,38.15
2022-08-28T21:49:56.985Z,38.60
2022-08-28T21:55:04.926Z,37.06
2022-08-28T22:00:14.100Z,38.76
2022-08-28T22:05:18.173Z,38.79
2022-08-28T22:10:23.205Z,37.66
2022-08-28T22:15:26.976Z,38.25
2022-08-28T22:20:30.804Z,38.28
2022-08-28T22:25:40.602Z,39.39
2022-08-28T22:30:44.918Z,39.02
2022-08-28T22:35:50.508Z,39.41
2022-08-28T22:40:55.357Z,40.18
2022-08-28T22:45:59.491Z,39.47
2022-08-28T22:51:06.554Z,39.81
2022-08-28T22:56:12.691Z,39.82
2022-08-28T23:01:19.343Z,39.89
2022-08-28T23:06:22.811Z,40.13
2022-08-28T23:11:28.565Z,40.57
2022-08-28T23:16:35.221Z,40.79
2022-08-28T23:21:40.829Z,41.07
2022-08-28T23:26:49.261Z,42.40
2022-08-28T23:31:54.595Z,42.74
2022-08-28T23:36:58.031Z,42.92
2022-08-28T23:42:03.774Z,42.71
2022-08-28T23:47:07.394Z,42.51
2022-08-28T23:52:11.021Z,43.23
2022-08-28T23:57:17.347Z,43.44
